createdAt,value
2019-04-10T00:01:21.743Z,32.78
2019-04-10T00:03:50.434Z,35.23
2019-04-10T00:06:19.091Z,34.33
2019-04-10T00:08:47.484Z,34.23
2019-04-10T00:11:16.578Z,34.38
2019-04-10T00:13:45.139Z,37.05
2019-04-10T00:16:13.932Z,35.92
2019-04-10T00:18:42.705Z,35.15
2019-04-10T00:21:11.314Z,38.73
2019-04-10T00:23:39.768Z,35.43
2019-04-10T00:26:08.182Z,37.15
2019-04-10T00:28:36.572Z,37.67
2019-04-10T00:31:05.271Z,37.15
2019-04-10T00:33:34.650Z,34.18
2019-04-10T00:36:03.732Z,31.15
2019-04-10T00:38:32.281Z,35.60
2019-04-10T00:41:00.702Z,38.55
2019-04-10T00:43:29.150Z,33.30
2019-04-10T00:45:57.890Z,36.42
2019-04-10T00:48:26.275Z,33.28
2019-04-10T00:50:54.957Z,33.73
2019-04-10T00:53:23.438Z,33.50
2019-04-10T00:55:52.331Z,35.00
2019-04-10T00:58:20.804Z,36.40
2019-04-10T01:00:50.312Z,45.03
2019-04-10T01:03:38.096Z,48.73
2019-04-10T01:06:06.651Z,45.17
2019-04-10T01:08:35.047Z,54.35
2019-04-10T01:11:03.467Z,59.33
2019-04-10T01:13:32.703Z,55.28
2019-04-10T01:16:01.232Z,59.50
2019-04-10T01:18:29.630Z,64.05
2019-04-10T01:20:58.016Z,60.23
2019-04-10T01:23:26.415Z,61.18
2019-04-10T01:25:55.079Z,69.40
2019-04-10T01:28:23.484Z,65.67
2019-04-10T01:30:52.749Z,69.03
2019-04-10T01:33:21.247Z,64.92
2019-04-10T01:35:50.826Z,76.30
2019-04-10T01:38:19.693Z,71.40
2019-04-10T01:40:48.081Z,71.85
2019-04-10T01:43:18.919Z,74.55
2019-04-10T01:45:46.604Z,74.85
2019-04-10T01:48:15.374Z,80.20
2019-04-10T01:50:44.468Z,79.72
2019-04-10T01:53:13.409Z,73.37
2019-04-10T01:55:42.943Z,75.05
2019-04-10T01:58:13.132Z,76.60
2019-04-10T02:00:43.807Z,75.45
2019-04-10T02:03:12.240Z,77.62
2019-04-10T02:05:40.806Z,75.00
2019-04-10T02:08:12.850Z,79.30
2019-04-10T02:10:40.467Z,75.78
2019-04-10T02:13:09.430Z,81.72
2019-04-10T02:15:38.460Z,75.30
2019-04-10T02:18:06.919Z,79.45
2019-04-10T02:20:35.330Z,72.37
2019-04-10T02:23:03.851Z,82.20
2019-04-10T02:25:32.703Z,76.50
2019-04-10T02:28:01.147Z,76.10
2019-04-10T02:30:30.259Z,72.22
2019-04-10T02:32:59.770Z,85.32
2019-04-10T02:35:29.751Z,80.83
2019-04-10T02:38:04.466Z,90.53
2019-04-10T02:40:28.946Z,92.65
2019-04-10T02:42:58.869Z,88.80
2019-04-10T02:45:27.727Z,90.17
2019-04-10T02:47:56.198Z,90.72
2019-04-10T02:50:25.335Z,107.47
2019-04-10T02:52:55.010Z,93.35
2019-04-10T02:55:24.914Z,92.00
2019-04-10T02:57:54.201Z,101.05
2019-04-10T03:00:24.542Z,92.17
2019-04-10T03:02:55.162Z,95.75
2019-04-10T03:05:26.673Z,93.10
2019-04-10T03:07:53.853Z,105.63
2019-04-10T03:10:36.039Z,99.25
2019-04-10T03:12:56.520Z,96.28
2019-04-10T03:15:25.307Z,99.30
2019-04-10T03:17:54.518Z,103.58
2019-04-10T03:20:23.045Z,87.15
2019-04-10T03:22:51.492Z,97.85
2019-04-10T03:25:20.970Z,101.78
2019-04-10T03:27:50.363Z,87.33
2019-04-10T03:30:21.026Z,103.35
2019-04-10T03:32:59.656Z,91.47
2019-04-10T03:35:27.944Z,97.33
2019-04-10T03:37:57.425Z,96.67
2019-04-10T03:40:27.064Z,99.30
2019-04-10T03:42:55.650Z,99.30
2019-04-10T03:45:24.326Z,103.22
2019-04-10T03:47:52.893Z,99.42
2019-04-10T03:50:21.300Z,92.45
2019-04-10T03:52:49.711Z,104.67
2019-04-10T03:55:18.907Z,97.85
2019-04-10T03:57:47.538Z,98.52
2019-04-10T04:00:16.262Z,98.92
2019-04-10T04:02:44.769Z,101.22
2019-04-10T04:05:13.220Z,103.60
2019-04-10T04:07:41.628Z,104.10
2019-04-10T04:10:10.850Z,106.72
2019-04-10T04:12:39.447Z,121.80
2019-04-10T04:15:09.408Z,118.42
2019-04-10T04:17:38.119Z,109.67
2019-04-10T04:20:06.569Z,133.80
2019-04-10T04:22:34.988Z,134.15
2019-04-10T04:25:04.485Z,130.65
2019-04-10T04:27:33.622Z,131.35
2019-04-10T04:30:02.069Z,146.60
2019-04-10T04:32:31.496Z,151.72
2019-04-10T04:35:00.011Z,125.27
2019-04-10T04:37:28.416Z,119.77
2019-04-10T04:39:56.800Z,129.35
2019-04-10T04:42:25.208Z,114.22
2019-04-10T04:44:54.237Z,132.35
2019-04-10T04:47:22.675Z,125.38
2019-04-10T04:49:51.059Z,106.85
2019-04-10T04:52:20.420Z,109.92
2019-04-10T04:54:49.826Z,93.40
2019-04-10T04:57:18.308Z,106.78
2019-04-10T04:59:46.696Z,89.90
2019-04-10T05:02:15.104Z,111.55
2019-04-10T05:04:43.856Z,107.52
2019-04-10T05:07:13.445Z,96.17
2019-04-10T05:09:42.290Z,97.17
2019-04-10T05:12:11.331Z,105.27
2019-04-10T05:14:39.945Z,109.15
2019-04-10T05:17:08.471Z,106.27
2019-04-10T05:19:36.891Z,90.03
2019-04-10T05:22:05.992Z,100.62
2019-04-10T05:24:34.606Z,102.15
2019-04-10T05:27:03.078Z,100.45
2019-04-10T05:29:31.489Z,105.12
2019-04-10T05:32:00.851Z,111.57
2019-04-10T05:34:29.603Z,105.63
2019-04-10T05:36:58.822Z,95.97
2019-04-10T05:39:39.201Z,98.87
2019-04-10T05:41:57.491Z,98.22
2019-04-10T05:44:25.890Z,109.55
2019-04-10T05:46:54.858Z,93.22
2019-04-10T05:49:23.357Z,126.95
2019-04-10T05:51:51.739Z,94.50
2019-04-10T05:54:20.132Z,96.72
2019-04-10T05:56:48.511Z,97.55
2019-04-10T05:59:16.910Z,96.45
2019-04-10T06:01:45.734Z,91.02
2019-04-10T06:04:14.163Z,88.55
2019-04-10T06:06:42.847Z,96.70
2019-04-10T06:09:12.185Z,94.65
2019-04-10T06:11:42.991Z,93.62
2019-04-10T06:14:10.845Z,90.28
2019-04-10T06:16:40.472Z,85.42
2019-04-10T06:19:09.577Z,95.38
2019-04-10T06:21:37.997Z,89.80
2019-04-10T06:24:06.397Z,83.87
2019-04-10T06:26:35.523Z,83.72
2019-04-10T06:29:04.497Z,89.47
2019-04-10T06:31:32.881Z,92.12
2019-04-10T06:34:01.427Z,89.72
2019-04-10T06:36:29.816Z,79.25
2019-04-10T06:38:58.548Z,80.75
2019-04-10T06:41:26.944Z,82.12
2019-04-10T06:43:55.327Z,84.15
2019-04-10T06:46:24.349Z,84.55
2019-04-10T06:48:52.871Z,80.90
2019-04-10T06:51:21.702Z,90.35
2019-04-10T06:54:00.137Z,82.42
2019-04-10T06:56:20.870Z,77.78
2019-04-10T06:58:49.870Z,66.47
2019-04-10T07:01:21.049Z,81.17
2019-04-10T07:03:56.523Z,79.32
2019-04-10T07:06:21.892Z,81.63
2019-04-10T07:08:51.923Z,71.77
2019-04-10T07:11:21.703Z,72.70
2019-04-10T07:13:49.214Z,76.92
2019-04-10T07:16:17.989Z,70.52
2019-04-10T07:18:49.019Z,67.08
2019-04-10T07:21:16.773Z,57.83
2019-04-10T07:23:45.353Z,67.92
2019-04-10T07:26:18.507Z,62.23
2019-04-10T07:28:45.952Z,58.98
2019-04-10T07:31:14.123Z,65.70
2019-04-10T07:33:42.638Z,61.20
2019-04-10T07:36:13.657Z,50.05
2019-04-10T07:38:41.371Z,57.38
2019-04-10T07:41:17.075Z,60.15
2019-04-10T07:43:40.617Z,53.98
2019-04-10T07:46:09.156Z,51.55
2019-04-10T07:48:37.857Z,57.23
2019-04-10T07:51:07.001Z,53.48
2019-04-10T07:53:35.561Z,51.45
2019-04-10T07:56:09.016Z,47.33
2019-04-10T07:58:34.071Z,53.13
2019-04-10T08:01:02.459Z,49.73
2019-04-10T08:03:31.134Z,49.05
2019-04-10T08:06:00.370Z,48.13
2019-04-10T08:08:29.967Z,46.40
2019-04-10T08:10:59.393Z,47.13
2019-04-10T08:13:28.901Z,51.23
2019-04-10T08:15:58.431Z,49.50
2019-04-10T08:18:27.607Z,43.00
2019-04-10T08:20:57.168Z,55.43
2019-04-10T08:23:26.009Z,41.02
2019-04-10T08:25:54.489Z,42.08
2019-04-10T08:28:23.990Z,42.90
2019-04-10T08:30:52.581Z,44.63
2019-04-10T08:33:21.812Z,42.35
2019-04-10T08:35:50.289Z,41.35
2019-04-10T08:38:18.688Z,43.85
2019-04-10T08:40:48.124Z,38.92
2019-04-10T08:43:16.659Z,42.05
2019-04-10T08:45:50.051Z,40.88
2019-04-10T08:48:15.537Z,39.53
2019-04-10T08:50:44.085Z,37.55
2019-04-10T08:53:12.496Z,38.88
2019-04-10T08:55:42.024Z,40.15
2019-04-10T08:58:10.651Z,38.58
2019-04-10T09:00:39.047Z,39.55
2019-04-10T09:03:08.663Z,39.33
2019-04-10T09:05:37.498Z,35.90
2019-04-10T09:08:06.047Z,42.67
2019-04-10T09:10:34.489Z,38.95
2019-04-10T09:13:04.158Z,33.88
2019-04-10T09:15:32.662Z,30.52
2019-04-10T09:18:01.946Z,40.80
2019-04-10T09:20:30.972Z,39.58
2019-04-10T09:23:17.906Z,28.75
2019-04-10T09:25:29.531Z,32.10
2019-04-10T09:27:58.024Z,31.12
2019-04-10T09:30:26.928Z,32.83
2019-04-10T09:32:55.394Z,31.77
2019-04-10T09:35:24.628Z,35.83
2019-04-10T09:37:53.148Z,31.95
2019-04-10T09:40:22.452Z,32.53
2019-04-10T09:42:52.054Z,28.27
2019-04-10T09:45:20.551Z,29.77
2019-04-10T09:47:48.946Z,29.35
2019-04-10T09:50:17.420Z,33.67
2019-04-10T09:52:46.257Z,30.57
2019-04-10T09:55:15.817Z,32.10
2019-04-10T09:57:45.224Z,32.63
2019-04-10T10:00:14.593Z,32.70
2019-04-10T10:02:43.281Z,32.40
2019-04-10T10:05:12.579Z,31.42
2019-04-10T10:07:41.109Z,31.05
2019-04-10T10:10:10.660Z,30.17
2019-04-10T10:12:39.247Z,38.65
2019-04-10T10:15:09.449Z,30.95
2019-04-10T10:17:39.076Z,35.13
2019-04-10T10:20:08.292Z,30.33
2019-04-10T10:22:37.046Z,29.72
2019-04-10T10:25:08.962Z,33.90
2019-04-10T10:27:38.518Z,33.33
2019-04-10T10:30:09.366Z,31.90
2019-04-10T10:32:39.169Z,29.77
2019-04-10T10:35:09.174Z,29.25
2019-04-10T10:37:38.722Z,27.85
2019-04-10T10:40:08.845Z,28.92
2019-04-10T10:42:39.642Z,31.20
2019-04-10T10:45:10.421Z,25.48
2019-04-10T10:47:40.209Z,29.90
2019-04-10T10:50:09.811Z,28.50
2019-04-10T10:52:38.211Z,30.75
2019-04-10T10:55:07.625Z,31.20
2019-04-10T10:57:37.370Z,33.05
2019-04-10T11:00:08.311Z,29.42
2019-04-10T11:02:38.002Z,29.72
2019-04-10T11:05:07.284Z,26.20
2019-04-10T11:07:36.497Z,27.83
2019-04-10T11:10:06.950Z,31.48
2019-04-10T11:12:35.836Z,24.47
2019-04-10T11:15:07.694Z,24.95
2019-04-10T11:17:36.265Z,25.32
2019-04-10T11:20:10.130Z,26.02
2019-04-10T11:22:39.839Z,29.12
2019-04-10T11:25:08.455Z,26.97
2019-04-10T11:27:36.843Z,21.62
2019-04-10T11:30:10.059Z,24.60
2019-04-10T11:32:38.760Z,19.55
2019-04-10T11:35:08.018Z,26.82
2019-04-10T11:37:43.407Z,23.60
2019-04-10T11:40:08.838Z,23.98
2019-04-10T11:42:39.743Z,22.45
2019-04-10T11:47:39.288Z,19.02
2019-04-10T11:50:13.499Z,19.77
2019-04-10T11:52:44.733Z,22.32
2019-04-10T11:55:13.933Z,20.80
2019-04-10T12:00:12.142Z,21.45
2019-04-10T12:02:39.723Z,20.15
2019-04-10T12:05:14.161Z,21.45
2019-04-10T12:12:39.726Z,19.77
2019-04-10T12:15:08.196Z,17.50
2019-04-10T12:17:36.585Z,19.17
2019-04-10T12:20:06.932Z,19.23
2019-04-10T12:25:06.841Z,19.10
2019-04-10T12:27:35.408Z,15.98
2019-04-10T12:30:06.822Z,14.70
2019-04-10T12:32:35.364Z,15.90
2019-04-10T12:35:05.371Z,14.93
2019-04-10T12:37:34.971Z,14.93
2019-04-10T12:40:05.516Z,20.08
2019-04-10T12:45:01.991Z,21.23
2019-04-10T12:47:30.909Z,13.88
2019-04-10T12:50:00.272Z,15.05
2019-04-10T12:52:28.760Z,15.45
2019-04-10T12:54:57.166Z,15.45
2019-04-10T12:57:26.604Z,16.62
2019-04-10T13:00:00.678Z,15.20
2019-04-10T13:02:26.063Z,19.27
2019-04-10T13:04:54.643Z,14.70
2019-04-10T13:07:23.374Z,13.70
2019-04-10T13:09:51.844Z,15.53
2019-04-10T13:12:20.878Z,17.55
2019-04-10T13:14:49.295Z,17.80
2019-04-10T13:17:19.931Z,17.42
2019-04-10T13:19:47.799Z,16.23
2019-04-10T13:22:16.272Z,13.18
2019-04-10T13:24:45.820Z,16.55
2019-04-10T13:27:14.751Z,17.05
2019-04-10T13:29:43.169Z,12.40
2019-04-10T13:32:11.783Z,16.67
2019-04-10T13:34:40.227Z,13.05
2019-04-10T13:37:08.943Z,18.32
2019-04-10T13:39:37.328Z,18.50
2019-04-10T13:42:07.257Z,19.05
2019-04-10T13:44:35.751Z,23.07
2019-04-10T13:47:05.016Z,19.15
2019-04-10T13:49:33.754Z,19.02
2019-04-10T13:52:02.289Z,19.07
2019-04-10T13:54:30.683Z,20.68
2019-04-10T13:56:59.073Z,18.45
2019-04-10T13:59:27.455Z,19.37
2019-04-10T14:01:56.378Z,20.80
2019-04-10T14:04:25.118Z,15.83
2019-04-10T14:06:53.684Z,18.40
2019-04-10T14:09:34.931Z,16.02
2019-04-10T14:11:53.367Z,21.48
2019-04-10T14:14:22.443Z,21.60
2019-04-10T14:16:50.992Z,20.80
2019-04-10T14:19:19.422Z,21.48
2019-04-10T14:21:48.974Z,24.95
2019-04-10T14:24:17.956Z,25.70
2019-04-10T14:27:00.188Z,17.48
2019-04-10T14:29:30.134Z,20.23
2019-04-10T14:32:00.764Z,20.23
2019-04-10T14:34:30.433Z,19.30
2019-04-10T14:36:59.021Z,23.27
2019-04-10T14:39:27.438Z,22.20
2019-04-10T14:41:56.066Z,17.95
2019-04-10T14:44:24.587Z,21.25
2019-04-10T14:46:53.875Z,23.12
2019-04-10T14:49:22.343Z,16.90
2019-04-10T14:51:50.793Z,23.65
2019-04-10T14:54:19.629Z,21.65
2019-04-10T14:56:48.497Z,21.85
2019-04-10T14:59:17.809Z,20.12
2019-04-10T15:01:46.352Z,23.90
2019-04-10T15:04:15.070Z,21.02
2019-04-10T15:06:43.832Z,20.62
2019-04-10T15:09:22.174Z,19.05
2019-04-10T15:11:48.925Z,17.02
2019-04-10T15:14:17.485Z,22.35
2019-04-10T15:16:53.451Z,22.85
2019-04-10T15:19:16.306Z,28.80
2019-04-10T15:21:45.145Z,19.48
2019-04-10T15:24:13.599Z,21.25
2019-04-10T15:26:41.992Z,24.50
2019-04-10T15:29:10.392Z,21.68
2019-04-10T15:31:39.673Z,22.20
2019-04-10T15:34:08.214Z,21.00
2019-04-10T15:36:36.965Z,21.23
2019-04-10T15:39:08.619Z,17.27
2019-04-10T15:41:37.167Z,22.27
2019-04-10T15:44:05.838Z,24.25
2019-04-10T15:46:35.275Z,21.90
2019-04-10T15:49:03.917Z,18.87
2019-04-10T15:51:32.299Z,17.73
2019-04-10T15:54:01.255Z,21.93
2019-04-10T15:56:29.929Z,21.77
2019-04-10T15:58:58.321Z,22.52
2019-04-10T16:01:28.475Z,20.55
2019-04-10T16:03:56.979Z,22.82
2019-04-10T16:06:25.377Z,21.37
2019-04-10T16:08:53.771Z,24.63
2019-04-10T16:11:27.856Z,23.20
2019-04-10T16:13:59.069Z,23.70
2019-04-10T16:16:35.054Z,22.20
2019-04-10T16:19:14.458Z,25.05
2019-04-10T16:21:43.729Z,21.25
2019-04-10T16:24:14.474Z,23.22
2019-04-10T16:26:43.310Z,22.02
2019-04-10T16:29:11.867Z,21.68
2019-04-10T16:31:40.267Z,21.90
2019-04-10T16:34:09.215Z,20.95
2019-04-10T16:36:37.632Z,25.12
2019-04-10T16:39:09.524Z,21.77
2019-04-10T16:41:37.991Z,26.97
2019-04-10T16:44:06.375Z,20.62
2019-04-10T16:46:34.818Z,25.85
2019-04-10T16:49:04.342Z,21.70
2019-04-10T16:51:32.766Z,27.17
2019-04-10T16:54:02.267Z,25.32
2019-04-10T16:56:31.767Z,25.05
2019-04-10T16:59:00.531Z,20.05
2019-04-10T17:01:29.024Z,24.63
2019-04-10T17:03:58.539Z,24.50
2019-04-10T17:06:28.064Z,24.40
2019-04-10T17:08:56.707Z,24.57
2019-04-10T17:11:27.101Z,22.27
2019-04-10T17:13:55.574Z,25.17
2019-04-10T17:16:24.007Z,27.02
2019-04-10T17:18:52.430Z,27.05
2019-04-10T17:21:21.452Z,26.82
2019-04-10T17:23:51.041Z,22.37
2019-04-10T17:26:19.563Z,20.02
2019-04-10T17:28:48.352Z,20.62
2019-04-10T17:31:18.151Z,21.95
2019-04-10T17:33:46.595Z,20.87
2019-04-10T17:36:15.014Z,17.57
2019-04-10T17:38:44.799Z,19.02
2019-04-10T17:41:13.364Z,17.27
2019-04-10T17:43:41.762Z,18.02
2019-04-10T17:46:11.091Z,23.18
2019-04-10T17:48:40.328Z,16.45
2019-04-10T17:51:09.914Z,16.75
2019-04-10T17:53:39.841Z,18.12
2019-04-10T17:56:08.782Z,16.12
2019-04-10T17:58:37.916Z,20.82
2019-04-10T18:01:08.375Z,21.52
2019-04-10T18:03:47.263Z,19.27
2019-04-10T18:06:07.055Z,17.57
2019-04-10T18:08:35.464Z,23.57
2019-04-10T18:11:03.919Z,20.23
2019-04-10T18:13:32.324Z,19.55
2019-04-10T18:16:00.740Z,18.40
2019-04-10T18:18:29.619Z,21.15
2019-04-10T18:20:58.260Z,18.75
2019-04-10T18:23:27.230Z,16.70
2019-04-10T18:25:55.744Z,16.75
2019-04-10T18:28:24.155Z,19.77
2019-04-10T18:30:52.611Z,18.57
2019-04-10T18:33:22.984Z,16.67
2019-04-10T18:35:51.629Z,18.50
2019-04-10T18:38:20.147Z,18.62
2019-04-10T18:40:55.863Z,20.77
2019-04-10T18:43:18.724Z,19.45
2019-04-10T18:45:57.317Z,18.40
2019-04-10T18:48:17.283Z,20.32
2019-04-10T18:50:45.673Z,18.95
2019-04-10T18:53:15.089Z,21.52
2019-04-10T18:55:44.816Z,14.38
2019-04-10T18:58:15.829Z,20.47
2019-04-10T19:01:07.933Z,18.75
2019-04-10T19:03:46.235Z,16.00
2019-04-10T19:06:12.591Z,20.15
2019-04-10T19:08:40.988Z,18.30
2019-04-10T19:11:20.002Z,17.85
2019-04-10T19:13:40.340Z,19.27
2019-04-10T19:16:08.978Z,17.92
2019-04-10T19:18:37.555Z,16.70
2019-04-10T19:21:07.010Z,18.55
2019-04-10T19:23:35.542Z,18.55
2019-04-10T19:26:05.146Z,21.25
2019-04-10T19:28:37.632Z,18.00
2019-04-10T19:31:18.907Z,23.32
2019-04-10T19:33:42.221Z,19.52
2019-04-10T19:36:11.865Z,18.17
2019-04-10T19:38:41.160Z,20.62
2019-04-10T19:41:22.189Z,23.87
2019-04-10T19:43:40.109Z,14.55
2019-04-10T19:46:09.788Z,22.02
2019-04-10T19:48:39.379Z,16.20
2019-04-10T19:51:08.103Z,16.20
2019-04-10T19:53:37.432Z,16.65
2019-04-10T19:56:06.521Z,18.00
2019-04-10T19:58:35.127Z,18.70
2019-04-10T20:01:05.180Z,20.90
2019-04-10T20:03:33.773Z,16.65
2019-04-10T20:06:03.714Z,16.35
2019-04-10T20:08:33.386Z,16.73
2019-04-10T20:11:02.456Z,16.23
2019-04-10T20:13:31.039Z,23.32
2019-04-10T20:16:00.683Z,15.08
2019-04-10T20:18:29.271Z,16.55
2019-04-10T20:20:57.688Z,16.45
2019-04-10T20:23:26.036Z,16.90
2019-04-10T20:25:55.207Z,15.93
2019-04-10T20:28:24.727Z,16.62
2019-04-10T20:30:54.917Z,20.27
2019-04-10T20:33:23.600Z,14.60
2019-04-10T20:35:52.903Z,17.15
2019-04-10T20:38:21.392Z,15.78
2019-04-10T20:40:49.856Z,13.68
2019-04-10T20:43:18.566Z,15.85
2019-04-10T20:45:47.598Z,14.18
2019-04-10T20:48:16.178Z,15.88
2019-04-10T20:50:44.568Z,17.15
2019-04-10T20:53:13.189Z,18.73
2019-04-10T20:55:41.918Z,11.50
2019-04-10T20:58:11.235Z,16.77
2019-04-10T21:00:41.049Z,19.98
2019-04-10T21:03:09.570Z,17.52
2019-04-10T21:05:38.006Z,15.18
2019-04-10T21:08:06.419Z,15.50
2019-04-10T21:10:34.811Z,16.97
2019-04-10T21:13:04.405Z,15.08
2019-04-10T21:15:33.451Z,18.70
2019-04-10T21:18:02.637Z,16.95
2019-04-10T21:20:32.333Z,11.85
2019-04-10T21:23:01.387Z,20.90
2019-04-10T21:25:30.947Z,14.87
2019-04-10T21:28:00.347Z,18.50
2019-04-10T21:30:31.570Z,14.30
2019-04-10T21:33:01.875Z,20.17
2019-04-10T21:35:41.521Z,16.07
2019-04-10T21:38:11.004Z,14.15
2019-04-10T21:40:39.823Z,16.35
2019-04-10T21:43:08.232Z,16.50
2019-04-10T21:45:36.684Z,18.27
2019-04-10T21:48:06.278Z,16.17
2019-04-10T21:50:35.584Z,17.62
2019-04-10T21:53:04.048Z,15.03
2019-04-10T21:55:32.544Z,14.73
2019-04-10T21:58:00.970Z,13.62
2019-04-10T22:00:49.039Z,14.45
2019-04-10T22:03:17.400Z,16.77
2019-04-10T22:05:48.424Z,13.43
2019-04-10T22:08:19.558Z,14.70
2019-04-10T22:10:50.285Z,19.32
2019-04-10T22:13:19.707Z,14.35
2019-04-10T22:15:49.094Z,15.60
2019-04-10T22:18:17.642Z,15.43
2019-04-10T22:20:46.103Z,15.25
2019-04-10T22:23:14.487Z,13.50
2019-04-10T22:25:43.730Z,13.83
2019-04-10T22:28:12.681Z,15.40
2019-04-10T22:30:41.581Z,19.37
2019-04-10T22:33:10.079Z,13.38
2019-04-10T22:35:38.472Z,14.50
2019-04-10T22:38:06.854Z,17.07
2019-04-10T22:40:35.249Z,14.65
2019-04-10T22:43:03.720Z,17.00
2019-04-10T22:45:32.847Z,18.90
2019-04-10T22:48:01.227Z,16.35
2019-04-10T22:50:30.864Z,14.63
2019-04-10T22:52:59.588Z,15.50
2019-04-10T22:55:28.212Z,15.85
2019-04-10T22:57:56.957Z,14.95
2019-04-10T23:00:28.007Z,17.15
2019-04-10T23:02:57.313Z,16.42
2019-04-10T23:05:26.807Z,16.55
2019-04-10T23:07:55.586Z,21.60
2019-04-10T23:10:24.785Z,17.80
2019-04-10T23:12:59.936Z,15.38
2019-04-10T23:15:25.274Z,16.00
2019-04-10T23:17:53.873Z,14.35
2019-04-10T23:20:22.262Z,14.55
2019-04-10T23:22:50.759Z,17.05
2019-04-10T23:25:20.405Z,17.52
2019-04-10T23:27:51.911Z,14.23
2019-04-10T23:30:19.958Z,20.60
2019-04-10T23:32:48.758Z,18.57
2019-04-10T23:35:17.198Z,17.40
2019-04-10T23:37:46.760Z,18.48
2019-04-10T23:40:15.400Z,14.73
2019-04-10T23:42:44.193Z,18.15
2019-04-10T23:45:13.512Z,17.60
2019-04-10T23:47:42.367Z,15.90
2019-04-10T23:50:12.107Z,14.18
2019-04-10T23:52:42.294Z,16.40
2019-04-10T23:55:10.730Z,18.65
2019-04-10T23:57:39.119Z,15.43
